Time;durP1;ratioP1;P1;durP2;ratioP2;P2;SDS_P1;SDS_P2;PMS_P1;PMS_P2;Temp;Humidity;BMP_temperature;BMP_pressure;BME280_temperature;BME280_humidity;BME280_pressure;Samples;Min_cycle;Max_cycle;Signal;HPM_P1;HPM_P2
2022/05/23 00:01:08;;;;;;;0.40;0.37;;;24.40;76.80;;;;;;4962943;29;20219;-91
2022/05/23 00:12:32;;;;;;;0.40;0.40;;;23.20;79.90;;;;;;5353538;22;20241;-93
2022/05/23 00:15:36;;;;;;;0.80;0.30;;;23.40;76.80;;;;;;5036874;28;20242;-93
2022/05/23 00:18:10;;;;;;;0.40;0.40;;;23.20;78.00;;;;;;5029990;28;20240;-93
2022/05/23 00:20:42;;;;;;;0.70;0.40;;;23.50;78.80;;;;;;5030258;28;20205;-93
2022/05/23 00:23:27;;;;;;;0.83;0.50;;;23.70;78.50;;;;;;5083486;23;20229;-92
2022/05/23 00:45:10;;;;;;;0.87;0.80;;;23.30;79.80;;;;;;4996802;28;20665;-91
2022/05/23 00:47:45;;;;;;;0.63;0.50;;;23.40;80.10;;;;;;4990749;28;20215;-93
2022/05/23 00:50:20;;;;;;;0.30;0.30;;;23.30;78.40;;;;;;4993945;28;20241;-93
2022/05/23 00:52:57;;;;;;;1.00;0.60;;;23.50;81.70;;;;;;4996023;28;20214;-92
2022/05/23 00:55:44;;;;;;;0.63;0.60;;;23.80;80.50;;;;;;4994705;28;20222;-92
2022/05/23 01:01:13;;;;;;;0.70;0.50;;;24.60;82.00;;;;;;4991048;28;20349;-93
2022/05/23 01:03:44;;;;;;;0.53;0.50;;;25.00;77.20;;;;;;4969870;28;20199;-93
2022/05/23 01:06:29;;;;;;;2.00;0.53;;;25.40;77.20;;;;;;4972811;29;20207;-93
2022/05/23 01:09:05;;;;;;;0.60;0.50;;;25.30;77.00;;;;;;5108248;23;20560;-93
2022/05/23 01:11:37;;;;;;;0.73;0.67;;;25.50;80.60;;;;;;5003663;28;20268;-93
2022/05/23 01:14:12;;;;;;;0.70;0.70;;;25.40;79.50;;;;;;5013106;28;20206;-94
2022/05/23 01:19:44;;;;;;;0.90;0.60;;;25.00;78.60;;;;;;5015427;28;20209;-93
2022/05/23 01:22:34;;;;;;;0.70;0.70;;;24.50;80.60;;;;;;5013920;28;20210;-93
2022/05/23 01:25:12;;;;;;;0.63;0.50;;;24.60;79.60;;;;;;5013350;28;20203;-93
2022/05/23 01:27:49;;;;;;;1.23;0.70;;;24.10;80.40;;;;;;5010965;28;20209;-93
2022/05/23 01:30:37;;;;;;;1.80;1.00;;;24.10;83.60;;;;;;5012423;28;20304;-93
2022/05/23 01:33:18;;;;;;;1.23;0.70;;;24.00;82.20;;;;;;4996324;28;20210;-93
2022/05/23 01:35:52;;;;;;;1.03;0.90;;;23.60;83.10;;;;;;4992949;28;20230;-93
2022/05/23 01:38:29;;;;;;;0.80;0.80;;;23.50;83.20;;;;;;4995768;28;20235;-92
2022/05/23 01:41:04;;;;;;;1.50;0.80;;;23.30;83.80;;;;;;4996699;28;20238;-93
2022/05/23 01:43:47;;;;;;;3.50;0.80;;;23.20;86.00;;;;;;4998515;28;20297;-92
2022/05/23 01:46:20;;;;;;;1.30;0.90;;;22.90;86.80;;;;;;5082525;23;20630;-93
2022/05/23 01:48:55;;;;;;;2.17;0.90;;;22.80;86.30;;;;;;5034259;28;20292;-91
2022/05/23 01:51:30;;;;;;;1.10;0.80;;;22.90;87.50;;;;;;5033364;28;20217;-92
2022/05/23 01:54:05;;;;;;;1.23;1.10;;;23.20;86.60;;;;;;5028752;28;20206;-91
2022/05/23 01:56:37;;;;;;;0.90;0.90;;;23.20;85.70;;;;;;5020938;28;20217;-90
2022/05/23 02:02:07;;;;;;;1.40;0.90;;;22.80;86.60;;;;;;5024545;28;20213;-92
2022/05/23 02:04:39;;;;;;;1.30;1.10;;;22.70;89.30;;;;;;5031998;28;20200;-91
2022/05/23 02:07:10;;;;;;;1.53;0.90;;;22.90;89.50;;;;;;5020667;28;20206;-91
2022/05/23 02:09:41;;;;;;;2.80;1.00;;;22.80;89.20;;;;;;5019664;28;20704;-92
2022/05/23 02:12:17;;;;;;;2.10;0.80;;;22.70;89.70;;;;;;5003926;28;20253;-91
2022/05/23 02:14:51;;;;;;;0.93;0.83;;;22.50;90.20;;;;;;5000211;28;20210;-92
2022/05/23 02:17:23;;;;;;;5.23;1.17;;;22.00;91.60;;;;;;5000211;28;20214;-93
2022/05/23 02:19:54;;;;;;;2.00;1.03;;;21.60;92.80;;;;;;5001160;28;20207;-92
2022/05/23 02:22:43;;;;;;;1.53;1.20;;;21.20;93.60;;;;;;5005513;28;20198;-92
2022/05/23 02:25:15;;;;;;;2.10;1.20;;;20.90;94.30;;;;;;5008526;28;20242;-91
2022/05/23 02:27:48;;;;;;;2.03;1.10;;;20.60;94.90;;;;;;5010948;28;20206;-91
2022/05/23 02:30:30;;;;;;;2.40;1.40;;;20.40;95.40;;;;;;5013906;28;20269;-92
2022/05/23 02:33:02;;;;;;;1.47;1.30;;;20.10;96.10;;;;;;5015324;28;20229;-92
2022/05/23 02:35:46;;;;;;;1.57;1.30;;;19.90;96.60;;;;;;5015610;28;20213;-92
2022/05/23 02:38:18;;;;;;;2.30;1.77;;;19.70;97.80;;;;;;5013903;28;20202;-92
2022/05/23 02:40:53;;;;;;;3.47;1.70;;;19.40;96.90;;;;;;5013251;28;20210;-91
2022/05/23 02:43:27;;;;;;;1.83;1.70;;;19.30;97.90;;;;;;5012871;28;20667;-91
2022/05/23 02:46:04;;;;;;;2.23;1.47;;;19.20;99.00;;;;;;5014739;28;20198;-91
2022/05/23 02:48:41;;;;;;;2.03;1.33;;;19.00;99.40;;;;;;5012353;28;20225;-91
2022/05/23 02:51:12;;;;;;;2.23;1.47;;;18.90;99.50;;;;;;5011393;28;20242;-90
2022/05/23 02:53:45;;;;;;;2.70;1.50;;;18.80;99.90;;;;;;5010597;28;20210;-91
2022/05/23 02:56:22;;;;;;;2.43;1.77;;;18.80;99.90;;;;;;5013123;28;20209;-91
2022/05/23 02:58:58;;;;;;;2.87;1.80;;;18.70;99.90;;;;;;5010817;28;20262;-91
2022/05/23 03:01:32;;;;;;;2.70;1.80;;;18.60;99.90;;;;;;4999558;28;20213;-91
2022/05/23 03:04:02;;;;;;;2.97;1.93;;;18.50;99.90;;;;;;4991042;28;20201;-91
2022/05/23 03:09:20;;;;;;;2.73;1.70;;;18.30;99.90;;;;;;4992404;28;20203;-91
2022/05/23 03:11:52;;;;;;;2.53;1.60;;;18.30;99.90;;;;;;4989003;28;20234;-91
2022/05/23 03:14:25;;;;;;;2.00;1.57;;;18.10;99.90;;;;;;4992726;28;20215;-91
2022/05/23 03:17:04;;;;;;;3.20;1.90;;;18.10;99.90;;;;;;4990850;28;20253;-91
2022/05/23 03:19:39;;;;;;;2.80;1.50;;;18.00;99.90;;;;;;5028449;28;20240;-92
2022/05/23 03:30:37;;;;;;;2.53;1.93;;;17.60;99.90;;;;;;5031853;28;20272;-91
2022/05/23 03:33:14;;;;;;;3.43;1.93;;;17.50;99.90;;;;;;5016590;28;20208;-90
2022/05/23 03:35:48;;;;;;;4.23;1.70;;;17.30;99.90;;;;;;4994841;28;20210;-91
2022/05/23 03:38:20;;;;;;;5.10;1.67;;;17.20;99.90;;;;;;4985969;28;20207;-92
2022/05/23 03:40:51;;;;;;;2.30;1.70;;;17.10;99.90;;;;;;4985251;28;20230;-91
2022/05/23 03:43:23;;;;;;;2.73;1.70;;;17.00;99.90;;;;;;5184727;23;20322;-93
2022/05/23 03:45:56;;;;;;;2.67;1.50;;;17.00;99.90;;;;;;4971264;28;20234;-92
2022/05/23 03:48:30;;;;;;;2.13;1.70;;;16.90;99.90;;;;;;4972459;28;20235;-92
2022/05/23 03:51:04;;;;;;;2.97;1.73;;;16.80;99.90;;;;;;4971401;28;20234;-92
2022/05/23 03:53:37;;;;;;;2.53;1.60;;;16.70;99.90;;;;;;4969468;28;20254;-92
2022/05/23 03:56:09;;;;;;;2.20;2.00;;;16.60;99.90;;;;;;4969543;28;20745;-91
2022/05/23 03:58:42;;;;;;;3.17;1.60;;;16.50;99.90;;;;;;4960345;28;20705;-92
2022/05/23 04:01:16;;;;;;;2.53;1.70;;;16.40;99.90;;;;;;4971996;29;20216;-92
2022/05/23 04:03:51;;;;;;;2.73;1.80;;;16.40;99.90;;;;;;4941440;29;20219;-92
2022/05/23 04:06:22;;;;;;;2.50;1.60;;;16.40;99.90;;;;;;4973422;28;20228;-91
2022/05/23 04:08:53;;;;;;;2.50;1.90;;;16.40;99.90;;;;;;4946320;29;20231;-92
2022/05/23 04:11:26;;;;;;;2.90;1.30;;;16.30;99.90;;;;;;4945091;29;20235;-90
2022/05/23 04:13:59;;;;;;;2.50;1.10;;;16.30;99.90;;;;;;4945968;29;20210;-91
2022/05/23 04:16:33;;;;;;;3.47;1.53;;;16.30;99.90;;;;;;4944890;29;20714;-91
2022/05/23 04:19:08;;;;;;;2.10;1.43;;;16.20;99.90;;;;;;4945410;29;20208;-92
2022/05/23 04:21:41;;;;;;;1.70;1.27;;;16.10;99.90;;;;;;4942082;29;20214;-92
2022/05/23 04:24:14;;;;;;;2.57;1.57;;;16.00;99.90;;;;;;4940511;29;20244;-92
2022/05/23 04:26:46;;;;;;;3.63;1.30;;;16.00;99.90;;;;;;4945122;29;20252;-92
2022/05/23 04:29:19;;;;;;;3.60;1.70;;;15.90;99.90;;;;;;4946269;29;20216;-92
2022/05/23 04:31:50;;;;;;;1.77;1.27;;;15.90;99.90;;;;;;4939683;29;20291;-92
2022/05/23 04:37:11;;;;;;;2.37;1.30;;;15.70;99.90;;;;;;4944910;29;20245;-92
2022/05/23 04:39:43;;;;;;;1.90;1.47;;;15.60;99.90;;;;;;4940587;29;20236;-92
2022/05/23 04:42:15;;;;;;;1.57;1.20;;;15.50;99.90;;;;;;4940853;29;20611;-92
2022/05/23 04:44:46;;;;;;;1.93;1.40;;;15.40;99.90;;;;;;4952991;29;20260;-92
2022/05/23 04:50:11;;;;;;;3.00;1.43;;;15.40;99.90;;;;;;4954136;29;20217;-91
2022/05/23 04:52:43;;;;;;;1.87;1.40;;;15.40;99.90;;;;;;4941800;29;20635;-91
2022/05/23 04:55:14;;;;;;;1.97;1.43;;;15.30;99.90;;;;;;4987691;23;20250;-90
2022/05/23 04:57:46;;;;;;;1.93;1.40;;;15.20;99.90;;;;;;4979416;28;20297;-91
2022/05/23 05:00:20;;;;;;;1.93;1.30;;;15.10;99.90;;;;;;4978723;28;20218;-90
2022/05/23 05:02:52;;;;;;;3.13;1.77;;;15.00;99.90;;;;;;4978550;28;20302;-90
2022/05/23 05:05:25;;;;;;;1.50;1.40;;;14.90;99.90;;;;;;4977941;28;20339;-90
2022/05/23 05:07:56;;;;;;;1.60;1.33;;;14.90;99.90;;;;;;4978364;28;20210;-90
2022/05/23 05:10:28;;;;;;;3.03;1.70;;;14.80;99.90;;;;;;4980580;28;20314;-90
2022/05/23 05:13:00;;;;;;;3.07;1.53;;;14.70;99.90;;;;;;4983534;28;20226;-91
2022/05/23 05:15:32;;;;;;;2.10;1.50;;;14.70;99.90;;;;;;4962353;28;20235;-91
2022/05/23 05:18:04;;;;;;;5.33;1.70;;;14.60;99.90;;;;;;4980905;28;20212;-90
2022/05/23 05:20:38;;;;;;;1.70;1.60;;;14.60;99.90;;;;;;4964372;28;20214;-91
2022/05/23 05:23:09;;;;;;;3.87;1.80;;;14.70;99.90;;;;;;4965639;28;20235;-91
2022/05/23 05:25:42;;;;;;;1.83;1.50;;;14.60;99.90;;;;;;4966591;28;20243;-91
2022/05/23 05:28:14;;;;;;;3.33;1.53;;;14.60;99.90;;;;;;4966873;28;20212;-91
2022/05/23 05:30:49;;;;;;;2.63;1.57;;;14.60;99.90;;;;;;4968188;28;20239;-91
2022/05/23 05:33:23;;;;;;;1.60;1.50;;;14.50;99.90;;;;;;4996586;28;20190;-91
2022/05/23 05:43:41;;;;;;;3.20;1.50;;;14.40;99.90;;;;;;4996187;28;20599;-92
2022/05/23 05:46:15;;;;;;;2.20;1.70;;;14.50;99.90;;;;;;4992058;28;20234;-93
2022/05/23 05:48:54;;;;;;;2.57;1.73;;;14.40;99.90;;;;;;4982056;28;20242;-93
2022/05/23 05:51:27;;;;;;;2.23;1.70;;;14.40;99.90;;;;;;4980327;28;20712;-90
2022/05/23 05:53:59;;;;;;;2.30;1.80;;;14.30;99.90;;;;;;4981669;28;20630;-90
2022/05/23 05:56:31;;;;;;;4.30;1.63;;;14.30;99.90;;;;;;4985273;28;20211;-91
2022/05/23 05:59:04;;;;;;;2.97;1.90;;;14.30;99.90;;;;;;4981059;28;20297;-91
2022/05/23 06:01:36;;;;;;;2.90;2.00;;;14.30;99.90;;;;;;4980083;28;20736;-90
2022/05/23 06:04:08;;;;;;;2.93;1.57;;;14.40;99.90;;;;;;4981762;28;20250;-90
2022/05/23 06:12:15;;;;;;;3.00;2.17;;;14.30;99.90;;;;;;4993108;28;20242;-91
2022/05/23 06:14:52;;;;;;;2.20;1.97;;;14.30;99.90;;;;;;4998155;28;20209;-91
2022/05/23 06:17:24;;;;;;;3.07;2.30;;;14.20;99.90;;;;;;4998485;28;20203;-91
2022/05/23 06:19:56;;;;;;;4.03;2.20;;;14.20;99.90;;;;;;4996457;28;20223;-92
2022/05/23 06:22:29;;;;;;;4.33;1.87;;;14.20;99.90;;;;;;4998527;28;20202;-90
2022/05/23 06:25:02;;;;;;;3.07;1.87;;;14.20;99.90;;;;;;4998613;28;20234;-91
2022/05/23 06:27:33;;;;;;;5.10;2.10;;;14.10;99.90;;;;;;4996772;28;20191;-91
2022/05/23 06:30:09;;;;;;;4.50;2.20;;;14.10;99.90;;;;;;4998200;28;20250;-90
2022/05/23 06:32:41;;;;;;;2.27;1.90;;;14.00;99.90;;;;;;4995227;28;20247;-91
2022/05/23 06:35:13;;;;;;;2.13;1.80;;;14.00;99.90;;;;;;4993101;28;20254;-91
2022/05/23 06:37:46;;;;;;;3.67;2.07;;;13.90;99.90;;;;;;4988182;28;20575;-90
2022/05/23 06:40:18;;;;;;;2.40;1.83;;;13.90;99.90;;;;;;4985412;28;20210;-90
2022/05/23 06:42:49;;;;;;;2.20;1.80;;;13.80;99.90;;;;;;4983520;28;20226;-91
2022/05/23 06:45:22;;;;;;;2.17;1.87;;;13.70;99.90;;;;;;4984622;28;20234;-91
2022/05/23 06:47:54;;;;;;;4.50;2.47;;;13.70;99.90;;;;;;4983889;28;20294;-91
2022/05/23 06:50:25;;;;;;;2.50;2.20;;;13.60;99.90;;;;;;4983913;28;20242;-91
2022/05/23 06:52:57;;;;;;;7.20;2.63;;;13.60;99.90;;;;;;4984790;28;20231;-91
2022/05/23 06:55:28;;;;;;;4.67;2.00;;;13.50;99.90;;;;;;4988002;28;20215;-91
2022/05/23 06:58:03;;;;;;;2.30;1.80;;;13.40;99.90;;;;;;4987085;28;20218;-91
2022/05/23 07:00:36;;;;;;;2.73;2.10;;;13.40;99.90;;;;;;4998115;28;20201;-90
2022/05/23 07:03:08;;;;;;;3.57;1.80;;;13.30;99.90;;;;;;4998035;28;20230;-91
2022/05/23 07:14:07;;;;;;;1.93;1.73;;;13.10;99.90;;;;;;4995576;28;20203;-91
2022/05/23 07:16:41;;;;;;;2.63;1.97;;;13.00;99.90;;;;;;4991385;28;20202;-91
2022/05/23 07:19:14;;;;;;;3.13;2.10;;;13.00;99.90;;;;;;4989320;28;20207;-91
2022/05/23 07:21:45;;;;;;;4.10;2.30;;;12.90;99.90;;;;;;4982084;28;20214;-91
2022/05/23 07:24:16;;;;;;;2.20;2.00;;;12.90;99.90;;;;;;4982538;28;20213;-91
2022/05/23 07:26:48;;;;;;;3.83;2.20;;;12.80;99.90;;;;;;4981162;28;20259;-90
2022/05/23 07:29:23;;;;;;;2.60;1.80;;;12.80;99.90;;;;;;4991735;28;20218;-90
2022/05/23 07:31:59;;;;;;;3.13;1.83;;;12.80;99.90;;;;;;4985131;28;20717;-91
2022/05/23 07:34:31;;;;;;;3.17;2.40;;;12.80;99.90;;;;;;4980506;28;20211;-91
2022/05/23 07:37:03;;;;;;;2.70;1.83;;;12.80;99.90;;;;;;4982171;28;20218;-91
2022/05/23 07:39:36;;;;;;;2.97;2.20;;;12.80;99.90;;;;;;4980562;28;20211;-92
2022/05/23 07:42:10;;;;;;;2.83;1.90;;;12.80;99.90;;;;;;4981449;28;20355;-91
2022/05/23 07:44:41;;;;;;;4.93;2.17;;;12.90;99.90;;;;;;4983238;28;20586;-91
2022/05/23 07:47:14;;;;;;;4.07;2.33;;;12.80;99.90;;;;;;4980978;28;20210;-92
2022/05/23 07:49:47;;;;;;;4.20;2.03;;;12.80;99.90;;;;;;4979500;28;20211;-91
2022/05/23 07:52:18;;;;;;;4.70;2.10;;;12.80;99.90;;;;;;4981691;28;20231;-91
2022/05/23 08:00:34;;;;;;;4.77;2.10;;;12.80;99.90;;;;;;4981967;28;20206;-91
2022/05/23 08:03:16;;;;;;;2.40;2.13;;;12.80;99.90;;;;;;4981676;28;20281;-91
2022/05/23 08:05:48;;;;;;;3.20;1.97;;;12.80;99.90;;;;;;4981567;28;20211;-91
2022/05/23 08:08:22;;;;;;;3.23;2.10;;;12.90;99.90;;;;;;4983200;28;20210;-91
2022/05/23 08:10:54;;;;;;;3.03;2.20;;;12.80;99.90;;;;;;4981119;28;20281;-91
2022/05/23 08:13:25;;;;;;;2.10;1.90;;;12.80;99.90;;;;;;4982930;28;20277;-91
2022/05/23 08:15:59;;;;;;;4.03;2.00;;;12.80;99.90;;;;;;4997665;28;20213;-91
2022/05/23 08:18:33;;;;;;;2.33;2.00;;;12.80;99.90;;;;;;5001172;28;20276;-90
2022/05/23 08:21:04;;;;;;;3.30;2.30;;;12.80;99.90;;;;;;5000098;28;20214;-91
2022/05/23 08:23:36;;;;;;;2.13;1.80;;;12.90;99.90;;;;;;5005037;28;20268;-90
2022/05/23 08:26:11;;;;;;;3.53;1.90;;;12.90;99.90;;;;;;5007569;28;20210;-91
2022/05/23 08:28:43;;;;;;;2.33;2.10;;;12.90;99.90;;;;;;5008827;28;20221;-91
2022/05/23 08:31:15;;;;;;;4.40;2.10;;;12.90;99.90;;;;;;5009249;28;20223;-91
2022/05/23 08:33:50;;;;;;;2.37;2.17;;;12.90;99.90;;;;;;5007955;28;20771;-91
2022/05/23 08:36:21;;;;;;;3.57;2.00;;;12.80;99.90;;;;;;5002474;28;20348;-91
2022/05/23 08:38:53;;;;;;;2.30;1.80;;;13.00;99.90;;;;;;5011023;28;20218;-90
2022/05/23 08:41:30;;;;;;;3.37;2.20;;;12.90;99.90;;;;;;4997858;28;20199;-90
2022/05/23 08:44:07;;;;;;;2.33;2.10;;;13.00;99.90;;;;;;4988489;28;20234;-88
2022/05/23 08:46:47;;;;;;;2.50;2.13;;;12.90;99.90;;;;;;4999148;28;20203;-90
2022/05/23 08:49:33;;;;;;;3.20;2.00;;;12.90;99.90;;;;;;5000433;28;20226;-91
2022/05/23 08:52:11;;;;;;;2.50;1.80;;;12.90;99.90;;;;;;5000804;28;20291;-91
2022/05/23 08:54:55;;;;;;;4.60;2.37;;;13.00;99.90;;;;;;5000333;28;20198;-91
2022/05/23 08:57:35;;;;;;;4.60;2.37;;;13.00;99.90;;;;;;5000625;28;20218;-90
2022/05/23 09:00:11;;;;;;;4.03;2.10;;;13.00;99.90;;;;;;4999947;28;20187;-90
2022/05/23 09:02:48;;;;;;;3.13;2.10;;;13.10;99.90;;;;;;5000251;28;20211;-91
2022/05/23 09:05:25;;;;;;;2.67;2.23;;;13.20;99.90;;;;;;5000233;28;20187;-91
2022/05/23 09:08:22;;;;;;;3.10;2.17;;;13.20;99.90;;;;;;4997227;28;20211;-91
2022/05/23 09:10:58;;;;;;;4.17;2.60;;;13.10;99.90;;;;;;4984480;28;20285;-90
2022/05/23 09:13:32;;;;;;;4.40;2.27;;;13.00;99.90;;;;;;4998475;28;20238;-90
2022/05/23 09:16:05;;;;;;;2.83;2.50;;;13.10;99.90;;;;;;5000651;28;20227;-90
2022/05/23 09:18:45;;;;;;;4.93;2.20;;;13.10;99.90;;;;;;5000176;28;20187;-90
2022/05/23 09:21:18;;;;;;;4.00;2.37;;;13.10;99.90;;;;;;4988392;28;20195;-90
2022/05/23 09:23:51;;;;;;;4.80;2.43;;;13.10;99.90;;;;;;5000607;23;20250;-91
2022/05/23 09:26:28;;;;;;;3.47;2.20;;;13.10;99.90;;;;;;4984051;28;20359;-91
2022/05/23 09:29:00;;;;;;;2.30;2.10;;;13.10;99.90;;;;;;4983708;28;20269;-89
2022/05/23 09:31:39;;;;;;;2.70;2.20;;;13.10;99.90;;;;;;4984640;28;20239;-89
2022/05/23 09:34:30;;;;;;;2.90;2.23;;;13.10;99.90;;;;;;4984059;28;20607;-91
2022/05/23 09:37:14;;;;;;;2.90;2.20;;;12.90;99.90;;;;;;4981851;28;20704;-91
2022/05/23 09:39:54;;;;;;;3.63;2.40;;;13.00;99.90;;;;;;4980904;28;20749;-90
2022/05/23 09:48:23;;;;;;;3.20;2.27;;;13.10;99.90;;;;;;4980989;28;20214;-91
2022/05/23 09:51:02;;;;;;;3.37;2.47;;;13.10;99.90;;;;;;4964031;28;20244;-91
2022/05/23 09:53:47;;;;;;;3.93;2.63;;;13.00;99.90;;;;;;4980962;28;20230;-91
2022/05/23 09:56:30;;;;;;;3.40;2.53;;;13.00;99.90;;;;;;4979594;28;20586;-91
2022/05/23 09:59:12;;;;;;;2.97;2.27;;;13.10;99.90;;;;;;4961942;28;20266;-91
2022/05/23 10:01:44;;;;;;;4.10;2.40;;;13.10;99.90;;;;;;4959032;29;20231;-91
2022/05/23 10:04:18;;;;;;;5.10;2.87;;;13.00;99.90;;;;;;4960915;29;20275;-90
2022/05/23 10:06:50;;;;;;;4.77;2.43;;;12.90;99.90;;;;;;4961873;28;20215;-91
2022/05/23 10:09:33;;;;;;;3.10;2.20;;;12.90;99.90;;;;;;4965242;28;20240;-92
2022/05/23 10:12:08;;;;;;;4.13;2.70;;;12.90;99.90;;;;;;4964636;28;20219;-91
2022/05/23 10:14:46;;;;;;;3.00;2.30;;;13.00;99.90;;;;;;4963298;28;20261;-91
2022/05/23 10:17:28;;;;;;;3.27;2.50;;;12.90;99.90;;;;;;4963955;28;20252;-91
2022/05/23 10:20:31;;;;;;;3.73;2.60;;;13.00;99.90;;;;;;4962851;29;20223;-91
2022/05/23 10:23:07;;;;;;;4.87;2.70;;;13.00;99.90;;;;;;4963018;28;20235;-91
2022/05/23 10:25:45;;;;;;;2.80;2.37;;;12.90;99.90;;;;;;4961856;28;20250;-91
2022/05/23 10:28:20;;;;;;;4.67;2.47;;;12.80;99.90;;;;;;4964654;28;20230;-90
2022/05/23 10:30:59;;;;;;;3.50;2.50;;;12.80;99.90;;;;;;4961759;28;20211;-90
2022/05/23 10:33:33;;;;;;;3.47;2.80;;;12.80;99.90;;;;;;4961609;28;20235;-90
2022/05/23 10:36:08;;;;;;;2.97;2.50;;;12.80;99.90;;;;;;4965183;28;20215;-91
2022/05/23 10:44:39;;;;;;;3.03;2.17;;;12.80;99.90;;;;;;4963019;29;20238;-91
2022/05/23 10:47:26;;;;;;;3.83;2.33;;;12.80;99.90;;;;;;4964046;28;20274;-91
2022/05/23 10:50:05;;;;;;;4.27;2.33;;;12.80;99.90;;;;;;4974135;28;20216;-91
2022/05/23 10:52:47;;;;;;;3.77;2.47;;;12.80;99.90;;;;;;4979216;28;20211;-91
2022/05/23 10:55:22;;;;;;;2.90;2.27;;;12.70;99.90;;;;;;4981162;28;20236;-90
2022/05/23 10:58:10;;;;;;;5.27;3.00;;;12.70;99.90;;;;;;4977967;28;20271;-91
2022/05/23 11:00:50;;;;;;;4.77;2.70;;;12.70;99.90;;;;;;4975966;28;20191;-91
2022/05/23 11:03:32;;;;;;;3.67;2.30;;;12.70;99.90;;;;;;4975367;29;20207;-91
2022/05/23 11:06:14;;;;;;;3.53;2.40;;;12.70;99.90;;;;;;4961111;28;20239;-91
2022/05/23 11:09:07;;;;;;;3.00;2.70;;;12.80;99.90;;;;;;4961076;28;20251;-91
2022/05/23 11:12:00;;;;;;;3.60;2.90;;;12.70;99.90;;;;;;4959989;28;20213;-91
2022/05/23 11:14:40;;;;;;;2.97;2.50;;;12.90;99.90;;;;;;4960578;29;20239;-92
2022/05/23 11:17:22;;;;;;;3.83;2.43;;;12.90;99.90;;;;;;4965243;28;20264;-91
2022/05/23 11:20:14;;;;;;;3.93;2.80;;;12.80;99.90;;;;;;4960971;29;20216;-91
2022/05/23 11:22:47;;;;;;;3.50;2.27;;;12.70;99.90;;;;;;4962039;29;20204;-91
2022/05/23 11:25:30;;;;;;;3.30;2.40;;;12.60;99.90;;;;;;4977558;28;20191;-91
2022/05/23 11:34:00;;;;;;;4.70;2.43;;;12.60;99.90;;;;;;4961866;29;20246;-91
2022/05/23 11:36:45;;;;;;;2.97;2.30;;;12.60;99.90;;;;;;4960532;28;20660;-91
2022/05/23 11:39:44;;;;;;;5.37;3.07;;;12.60;99.90;;;;;;4960514;28;20216;-91
2022/05/23 11:42:17;;;;;;;2.83;2.30;;;12.60;99.90;;;;;;4959523;29;20235;-90
2022/05/23 11:45:56;;;;;;;2.80;2.47;;;12.60;99.90;;;;;;4968109;28;20225;-91
2022/05/23 11:48:01;;;;;;;3.40;2.20;;;12.70;99.90;;;;;;4980115;28;20366;-91
2022/05/23 11:50:33;;;;;;;5.30;2.97;;;12.60;99.90;;;;;;4980929;28;20206;-91
2022/05/23 11:53:12;;;;;;;2.93;2.63;;;12.60;99.90;;;;;;4980295;28;20215;-91
2022/05/23 11:56:02;;;;;;;3.63;3.20;;;12.50;99.90;;;;;;4979314;28;20257;-91
2022/05/23 11:58:57;;;;;;;3.43;2.40;;;12.50;99.90;;;;;;4979117;28;20223;-91
2022/05/23 12:01:30;;;;;;;3.63;2.70;;;12.50;99.90;;;;;;4978750;28;20214;-91
2022/05/23 12:04:21;;;;;;;2.60;2.37;;;12.50;99.90;;;;;;4979013;28;20207;-91
2022/05/23 12:06:52;;;;;;;3.20;2.20;;;12.50;99.90;;;;;;4978672;28;20219;-91
2022/05/23 12:09:32;;;;;;;3.47;2.50;;;12.60;99.90;;;;;;4977847;28;20720;-91
2022/05/23 12:12:49;;;;;;;3.53;2.60;;;12.60;99.90;;;;;;4978749;28;20486;-90
2022/05/23 12:15:56;;;;;;;2.50;2.20;;;12.50;99.90;;;;;;4978629;28;20325;-90
2022/05/23 12:18:40;;;;;;;2.70;2.43;;;12.60;99.90;;;;;;4977668;28;20274;-91
2022/05/23 12:21:44;;;;;;;3.47;2.17;;;12.80;99.90;;;;;;4979279;28;20219;-91
2022/05/23 12:24:28;;;;;;;3.13;2.50;;;12.60;99.90;;;;;;4981042;28;20265;-91
2022/05/23 12:27:32;;;;;;;4.07;2.83;;;12.50;99.90;;;;;;4980775;28;20318;-89
2022/05/23 12:30:43;;;;;;;4.30;2.47;;;12.30;99.90;;;;;;4979163;28;20661;-91
2022/05/23 12:33:24;;;;;;;4.07;2.63;;;12.30;99.90;;;;;;4980411;28;20226;-91
2022/05/23 12:35:59;;;;;;;3.03;2.60;;;12.30;99.90;;;;;;4980132;28;20238;-90
2022/05/23 12:38:50;;;;;;;3.57;2.77;;;12.30;99.90;;;;;;4979983;28;20202;-91
2022/05/23 12:41:39;;;;;;;3.90;3.10;;;12.30;99.90;;;;;;4979677;28;20392;-91
2022/05/23 12:44:55;;;;;;;3.37;2.67;;;12.30;99.90;;;;;;4980182;28;20250;-91
2022/05/23 12:48:05;;;;;;;5.60;2.60;;;12.30;99.90;;;;;;4977915;28;20243;-91
2022/05/23 12:50:51;;;;;;;3.17;2.77;;;12.30;99.90;;;;;;4924621;28;20285;-91
2022/05/23 12:53:57;;;;;;;4.30;2.60;;;12.30;99.90;;;;;;4977042;28;20230;-91
2022/05/23 12:56:52;;;;;;;4.47;2.87;;;12.30;99.90;;;;;;4979863;28;20198;-91
2022/05/23 12:59:45;;;;;;;4.77;2.87;;;12.40;99.90;;;;;;4978109;28;20234;-91
2022/05/23 13:02:22;;;;;;;4.13;2.67;;;12.50;99.90;;;;;;4961949;28;20243;-91
2022/05/23 13:04:57;;;;;;;4.10;3.07;;;12.50;99.90;;;;;;4960155;29;20203;-92
2022/05/23 13:07:38;;;;;;;4.60;3.00;;;12.60;99.90;;;;;;4968322;28;20214;-91
2022/05/23 13:10:18;;;;;;;5.47;3.13;;;12.60;99.90;;;;;;4977388;28;20222;-92
2022/05/23 13:13:00;;;;;;;3.03;2.67;;;12.70;99.90;;;;;;4977445;28;20297;-91
2022/05/23 13:15:33;;;;;;;5.67;3.03;;;12.70;99.90;;;;;;4977526;28;20249;-91
2022/05/23 13:24:00;;;;;;;5.10;3.80;;;12.80;99.90;;;;;;4977495;28;20215;-91
2022/05/23 13:26:33;;;;;;;5.33;3.40;;;12.80;99.90;;;;;;4977732;28;20258;-91
2022/05/23 13:29:15;;;;;;;4.50;3.60;;;12.80;99.90;;;;;;4979288;28;20227;-91
2022/05/23 13:31:47;;;;;;;3.50;3.17;;;12.80;99.90;;;;;;4995763;23;20416;-91
2022/05/23 13:34:20;;;;;;;5.33;3.63;;;12.90;99.90;;;;;;4991450;28;20250;-92
2022/05/23 13:36:53;;;;;;;4.50;3.90;;;12.90;99.90;;;;;;4999856;28;20198;-92
2022/05/23 13:39:26;;;;;;;6.13;3.67;;;13.00;99.90;;;;;;4998861;28;20179;-93
2022/05/23 13:42:04;;;;;;;7.03;3.50;;;13.00;99.90;;;;;;4985023;28;20210;-91
2022/05/23 13:44:36;;;;;;;5.13;3.40;;;13.10;99.90;;;;;;4985842;28;20198;-91
2022/05/23 13:47:12;;;;;;;5.23;3.33;;;13.10;99.90;;;;;;4984426;28;20274;-91
2022/05/23 13:49:47;;;;;;;5.63;3.30;;;13.00;99.90;;;;;;4984597;28;20257;-92
2022/05/23 13:52:23;;;;;;;5.60;3.57;;;13.00;99.90;;;;;;4983715;28;20221;-91
2022/05/23 13:55:01;;;;;;;4.43;3.60;;;13.10;99.90;;;;;;4982581;28;20257;-91
2022/05/23 13:57:47;;;;;;;6.13;3.93;;;13.10;99.90;;;;;;4982087;28;20206;-92
2022/05/23 14:00:22;;;;;;;5.27;3.63;;;13.00;99.90;;;;;;4984572;28;20218;-91
2022/05/23 14:03:00;;;;;;;6.40;3.40;;;13.00;99.90;;;;;;4993925;28;20218;-91
2022/05/23 14:05:33;;;;;;;4.83;3.70;;;13.10;99.90;;;;;;4984376;28;20210;-91
2022/05/23 14:08:06;;;;;;;5.90;3.67;;;13.10;99.90;;;;;;4980893;28;20298;-92
2022/05/23 14:10:40;;;;;;;4.93;3.40;;;13.10;99.90;;;;;;4984537;28;20227;-91
2022/05/23 14:13:16;;;;;;;5.07;3.60;;;13.10;99.90;;;;;;4984567;28;20234;-92
2022/05/23 14:15:55;;;;;;;4.17;3.13;;;13.10;99.90;;;;;;4984379;28;20273;-92
2022/05/23 14:18:32;;;;;;;5.90;3.13;;;13.10;99.90;;;;;;4984659;28;20191;-92
2022/05/23 14:21:04;;;;;;;5.57;3.53;;;13.10;99.90;;;;;;4983440;28;20221;-92
2022/05/23 14:23:36;;;;;;;4.13;3.20;;;13.10;99.90;;;;;;4981477;28;20245;-90
2022/05/23 14:26:11;;;;;;;4.93;3.33;;;13.20;99.90;;;;;;4982276;28;20199;-92
2022/05/23 14:28:54;;;;;;;5.63;3.40;;;13.20;99.90;;;;;;4979683;28;20218;-92
2022/05/23 14:31:44;;;;;;;5.50;3.50;;;13.30;99.90;;;;;;4980323;28;20226;-92
2022/05/23 14:34:28;;;;;;;4.27;3.73;;;13.40;99.90;;;;;;4984321;28;20207;-92
2022/05/23 14:37:05;;;;;;;3.43;3.13;;;13.50;99.90;;;;;;4990637;28;20294;-92
2022/05/23 14:39:38;;;;;;;4.83;3.00;;;13.70;99.90;;;;;;4978825;28;20602;-92
2022/05/23 14:42:27;;;;;;;4.70;3.53;;;13.60;99.90;;;;;;4979734;28;20265;-92
2022/05/23 14:45:27;;;;;;;8.30;3.47;;;13.60;99.90;;;;;;4982497;28;20214;-92
2022/05/23 14:48:17;;;;;;;5.63;3.20;;;13.70;99.90;;;;;;4992624;28;20215;-90
2022/05/23 14:50:55;;;;;;;4.50;3.40;;;13.90;99.90;;;;;;4989163;28;20207;-90
2022/05/23 14:56:36;;;;;;;4.50;3.40;;;14.20;99.90;;;;;;4989328;28;20238;-90
2022/05/23 15:02:16;;;;;;;4.13;3.27;;;14.70;99.90;;;;;;4990701;28;20255;-90
2022/05/23 15:04:49;;;;;;;4.80;3.00;;;14.90;99.90;;;;;;4991134;28;20246;-90
2022/05/23 15:07:25;;;;;;;5.27;3.27;;;14.90;99.90;;;;;;4989873;28;20266;-93
2022/05/23 15:09:59;;;;;;;4.77;3.20;;;15.00;99.90;;;;;;4986672;28;20233;-88
2022/05/23 15:12:55;;;;;;;3.40;2.67;;;15.10;99.90;;;;;;4993932;28;20206;-91
2022/05/23 15:15:28;;;;;;;6.57;2.77;;;14.90;99.90;;;;;;4994614;28;20751;-90
2022/05/23 15:21:01;;;;;;;4.90;3.20;;;14.70;99.90;;;;;;4990305;28;20637;-91
2022/05/23 15:23:33;;;;;;;5.23;3.07;;;14.90;99.90;;;;;;4987492;28;20213;-91
2022/05/23 15:26:08;;;;;;;5.80;3.47;;;15.00;99.90;;;;;;4988006;28;20269;-91
2022/05/23 15:28:40;;;;;;;4.60;3.13;;;14.90;99.90;;;;;;4990235;28;20246;-91
2022/05/23 15:31:14;;;;;;;4.23;2.87;;;14.90;99.90;;;;;;4989693;28;20211;-92
2022/05/23 15:33:50;;;;;;;6.27;3.13;;;14.60;99.90;;;;;;4992643;28;20210;-91